| time (UTC) | temp C | wind direction | speed KPH | gust KPH | rain 1hr cm | rain 24hr cm | rain mn cm | humidity % | barometer mb |
| 20260508140634 | 14 | 291 | 9.7 | 12.9 | 0.00 | 0.00 | 0.00 | 78 | 1026.8 |
| 20260508140130 | 14 | 291 | 9.7 | 12.9 | 0.00 | 0.00 | 0.00 | 78 | 1026.8 |
| 20260508135626 | 13 | 293 | 12.9 | 14.5 | 0.00 | 0.00 | 0.00 | 78 | 1026.6 |
| 20260508134242 | 12 | 290 | 9.7 | 11.3 | 0.00 | 0.00 | 0.00 | 80 | 1026.6 |
| 20260508133738 | 12 | 290 | 9.7 | 11.3 | 0.00 | 0.00 | 0.00 | 80 | 1026.6 |
| 20260508133236 | 12 | 298 | 9.7 | 11.3 | 0.00 | 0.00 | 0.00 | 80 | 1026.6 |
| 20260508132734 | 12 | 283 | 12.9 | 16.1 | 0.00 | 0.00 | 0.00 | 80 | 1026.5 |
| 20260508132231 | 12 | 272 | 12.9 | 14.5 | 0.00 | 0.00 | 0.00 | 81 | 1026.6 |
| 20260508131727 | 12 | 268 | 11.3 | 12.9 | 0.00 | 0.00 | 0.00 | 81 | 1026.4 |
| 20260508131223 | 12 | 284 | 12.9 | 16.1 | 0.00 | 0.00 | 0.00 | 80 | 1026.4 |
| 20260508130719 | 13 | 286 | 11.3 | 14.5 | 0.00 | 0.00 | 0.00 | 79 | 1026.5 |
| 20260508114155 | 13 | 275 | 17.7 | 20.9 | 0.00 | 0.00 | 0.00 | 77 | 1026.2 |
| 20260508113652 | 13 | 275 | 17.7 | 20.9 | 0.00 | 0.00 | 0.00 | 77 | 1026.2 |
| 20260508113150 | 13 | 291 | 16.1 | 17.7 | 0.00 | 0.00 | 0.00 | 77 | 1026.1 |
| 20260508112646 | 13 | 288 | 14.5 | 16.1 | 0.00 | 0.00 | 0.00 | 76 | 1026.1 |
| 20260508112143 | 13 | 295 | 17.7 | 17.7 | 0.00 | 0.00 | 0.00 | 78 | 1026.2 |
| 20260508111639 | 13 | 321 | 12.9 | 16.1 | 0.00 | 0.00 | 0.00 | 77 | 1026.0 |
| 20260508111137 | 13 | 301 | 14.5 | 20.9 | 0.00 | 0.00 | 0.00 | 77 | 1026.0 |
| 20260508110629 | 13 | 300 | 9.7 | 12.9 | 0.00 | 0.00 | 0.00 | 76 | 1026.2 |
| 20260508110125 | 13 | 296 | 14.5 | 16.1 | 0.00 | 0.00 | 0.00 | 74 | 1026.2 |
| 20260508105625 | 13 | 294 | 14.5 | 16.1 | 0.00 | 0.00 | 0.00 | 75 | 1026.2 |
| 20260508101211 | 13 | 289 | 12.9 | 14.5 | 0.00 | 0.00 | 0.00 | 74 | 1026.4 |
| 20260508100708 | 13 | 289 | 12.9 | 14.5 | 0.00 | 0.00 | 0.00 | 74 | 1026.4 |
| 20260508100206 | 13 | 300 | 11.3 | 12.9 | 0.00 | 0.00 | 0.00 | 74 | 1026.5 |
| 20260508095702 | 13 | 305 | 16.1 | 17.7 | 0.00 | 0.00 | 0.00 | 74 | 1026.4 |
| 20260508095200 | 13 | 302 | 12.9 | 16.1 | 0.00 | 0.00 | 0.00 | 74 | 1026.5 |
| 20260508094656 | 13 | 296 | 11.3 | 12.9 | 0.00 | 0.00 | 0.00 | 75 | 1026.2 |
| 20260508094153 | 13 | 299 | 11.3 | 11.3 | 0.00 | 0.00 | 0.00 | 75 | 1026.6 |
| 20260508093650 | 13 | 300 | 12.9 | 16.1 | 0.00 | 0.00 | 0.00 | 74 | 1026.4 |
| 20260508093148 | 13 | 303 | 16.1 | 17.7 | 0.00 | 0.00 | 0.00 | 73 | 1026.5 |
| 20260508092645 | 13 | 303 | 16.1 | 17.7 | 0.00 | 0.00 | 0.00 | 73 | 1026.5 |
| 20260508092143 | 13 | 293 | 14.5 | 14.5 | 0.00 | 0.00 | 0.00 | 73 | 1026.4 |
| 20260508091640 | 13 | 304 | 14.5 | 16.1 | 0.00 | 0.00 | 0.00 | 73 | 1026.5 |
| 20260508091137 | 13 | 301 | 12.9 | 12.9 | 0.00 | 0.00 | 0.00 | 74 | 1026.4 |
| 20260508090635 | 13 | 301 | 12.9 | 12.9 | 0.00 | 0.00 | 0.00 | 74 | 1026.4 |
| 20260508090132 | 13 | 305 | 16.1 | 20.9 | 0.00 | 0.00 | 0.00 | 74 | 1026.5 |
| 20260508085627 | 13 | 310 | 14.5 | 16.1 | 0.00 | 0.00 | 0.00 | 74 | 1026.4 |
| 20260508084056 | 13 | 311 | 9.7 | 11.3 | 0.00 | 0.00 | 0.00 | 73 | 1026.6 |
| 20260508083553 | 13 | 311 | 9.7 | 11.3 | 0.00 | 0.00 | 0.00 | 73 | 1026.6 |
| 20260508083050 | 13 | 298 | 11.3 | 12.9 | 0.00 | 0.00 | 0.00 | 73 | 1026.7 |
| 20260508082546 | 13 | 300 | 12.9 | 14.5 | 0.00 | 0.00 | 0.00 | 72 | 1026.6 |
| 20260508082043 | 13 | 303 | 14.5 | 17.7 | 0.00 | 0.00 | 0.00 | 72 | 1026.8 |
| 20260508081541 | 13 | 310 | 12.9 | 16.1 | 0.00 | 0.00 | 0.00 | 73 | 1026.6 |
| 20260508081036 | 13 | 301 | 11.3 | 12.9 | 0.00 | 0.00 | 0.00 | 73 | 1026.9 |
| 20260508080535 | 13 | 317 | 11.3 | 14.5 | 0.00 | 0.00 | 0.00 | 72 | 1026.8 |
| 20260508080031 | 13 | 291 | 11.3 | 12.9 | 0.00 | 0.00 | 0.00 | 71 | 1026.8 |
| 20260508075527 | 13 | 299 | 14.5 | 16.1 | 0.00 | 0.00 | 0.00 | 69 | 1027.0 |
| 20260508074431 | 14 | 312 | 16.1 | 20.9 | 0.00 | 0.00 | 0.00 | 70 | 1026.9 |
| 20260508073928 | 14 | 312 | 16.1 | 20.9 | 0.00 | 0.00 | 0.00 | 70 | 1026.9 |
| 20260508073425 | 14 | 312 | 16.1 | 20.9 | 0.00 | 0.00 | 0.00 | 70 | 1026.9 |
| 20260508063233 | 14 | 309 | 12.9 | 14.5 | 0.00 | 0.00 | 0.00 | 70 | 1026.8 |
| 20260508062730 | 14 | 309 | 12.9 | 14.5 | 0.00 | 0.00 | 0.00 | 70 | 1026.8 |
| 20260508062228 | 15 | 293 | 14.5 | 17.7 | 0.00 | 0.00 | 0.00 | 70 | 1026.7 |
| 20260508061724 | 15 | 301 | 11.3 | 12.9 | 0.00 | 0.00 | 0.00 | 70 | 1026.8 |
| 20260508061221 | 15 | 294 | 17.7 | 20.9 | 0.00 | 0.00 | 0.00 | 69 | 1026.8 |
| 20260508060718 | 15 | 299 | 11.3 | 12.9 | 0.00 | 0.00 | 0.00 | 69 | 1026.6 |
| 20260508060216 | 15 | 295 | 12.9 | 14.5 | 0.00 | 0.00 | 0.00 | 68 | 1026.7 |
| 20260508055711 | 15 | 279 | 14.5 | 16.1 | 0.00 | 0.00 | 0.00 | 67 | 1026.8 |
| 20260508055208 | 15 | 290 | 14.5 | 20.9 | 0.00 | 0.00 | 0.00 | 68 | 1026.7 |
| 20260508054704 | 15 | 298 | 12.9 | 14.5 | 0.00 | 0.00 | 0.00 | 68 | 1026.6 |
| 20260508054203 | 15 | 292 | 11.3 | 12.9 | 0.00 | 0.00 | 0.00 | 69 | 1026.8 |
| 20260508053659 | 15 | 303 | 14.5 | 16.1 | 0.00 | 0.00 | 0.00 | 69 | 1026.7 |
| 20260508053157 | 15 | 275 | 16.1 | 17.7 | 0.00 | 0.00 | 0.00 | 69 | 1026.7 |
| 20260508052654 | 15 | 290 | 16.1 | 20.9 | 0.00 | 0.00 | 0.00 | 69 | 1026.9 |
| 20260508052150 | 15 | 300 | 14.5 | 16.1 | 0.00 | 0.00 | 0.00 | 69 | 1026.8 |
| 20260508051647 | 15 | 294 | 14.5 | 17.7 | 0.00 | 0.00 | 0.00 | 70 | 1026.7 |
| 20260508051142 | 15 | 297 | 12.9 | 14.5 | 0.00 | 0.00 | 0.00 | 70 | 1026.6 |
| 20260508050638 | 15 | 289 | 14.5 | 17.7 | 0.00 | 0.00 | 0.00 | 69 | 1026.7 |
| 20260508050136 | 15 | 290 | 19.3 | 22.5 | 0.00 | 0.00 | 0.00 | 68 | 1026.8 |
| 20260508045632 | 15 | 293 | 14.5 | 16.1 | 0.00 | 0.00 | 0.00 | 68 | 1026.6 |
| 20260508045130 | 15 | 306 | 12.9 | 14.5 | 0.00 | 0.00 | 0.00 | 68 | 1026.8 |
| 20260508044626 | 15 | 294 | 17.7 | 22.5 | 0.00 | 0.00 | 0.00 | 66 | 1026.6 |
| 20260508044122 | 15 | 279 | 11.3 | 12.9 | 0.00 | 0.00 | 0.00 | 66 | 1026.6 |
| 20260508033636 | 16 | 285 | 12.9 | 16.1 | 0.00 | 0.00 | 0.00 | 63 | 1026.2 |
| 20260508033135 | 16 | 285 | 12.9 | 16.1 | 0.00 | 0.00 | 0.00 | 63 | 1026.2 |
| 20260508032630 | 16 | 285 | 12.9 | 16.1 | 0.00 | 0.00 | 0.00 | 63 | 1026.2 |